This is the latest recevied weather packets stored in our database for station/object IZ3VCM. If no packets are shown the sender has not sent any weather packets the latest 10 day(s).
| Time | Temp. | Humidity | Pressure | Rain* | Wind** | Luminosity | Snow |
|---|---|---|---|---|---|---|---|
| 1778182205 | 16.67° C | 71% | 1013.4 hPa | 0 mm | - | - | - |
| 1778181302 | 17.22° C | 68% | 1013.1 hPa | 0 mm | - | - | - |
| 1778180406 | 17.78° C | 66% | 1012.9 hPa | 0 mm | - | - | - |
| 1778179503 | 18.33° C | 65% | 1012.7 hPa | 0 mm | - | - | - |
| 1778178605 | 19.44° C | 63% | 1012.4 hPa | 0 mm | - | - | - |
| 1778177703 | 20° C | 58% | 1012.3 hPa | 0 mm | - | - | - |
| 1778176806 | 21.11° C | 53% | 1012.1 hPa | 0 mm | - | - | - |
| 1778175903 | 22.78° C | 50% | 1011.7 hPa | 0 mm | - | - | - |
| 1778175005 | 23.33° C | 47% | 1011.5 hPa | 0 mm | - | - | - |
| 1778174103 | 24.44° C | 45% | 1011.6 hPa | 0 mm | - | - | - |
| 1778173205 | 25° C | 44% | 1011.5 hPa | 0 mm | - | - | - |
| 1778172303 | 25° C | 45% | 1011.4 hPa | 0 mm | - | - | - |
| 1778171405 | 25.56° C | 45% | 1011.3 hPa | 0 mm | - | - | - |
| 1778170504 | 25.56° C | 44% | 1011.4 hPa | 0 mm | - | - | - |
| 1778169606 | 25.56° C | 43% | 1011.5 hPa | 0 mm | - | - | - |
| 1778168703 | 26.11° C | 43% | 1011.4 hPa | 0 mm | - | - | - |
| 1778167805 | 26.11° C | 44% | 1011.4 hPa | 0 mm | - | - | - |
| 1778166903 | 24.44° C | 46% | 1011.5 hPa | 0 mm | - | - | - |
| 1778166005 | 24.44° C | 46% | 1011.7 hPa | 0 mm | - | - | - |
| 1778165103 | 23.33° C | 50% | 1011.7 hPa | 0 mm | - | - | - |
| 1778164205 | 22.78° C | 50% | 1011.6 hPa | 0 mm | - | - | - |
| 1778163303 | 23.33° C | 49% | 1011.7 hPa | 0 mm | - | - | - |
| 1778162405 | 23.33° C | 47% | 1011.7 hPa | 0 mm | - | - | - |
| 1778161503 | 24.44° C | 46% | 1011.7 hPa | 0 mm | - | - | - |
| 1778160605 | 24.44° C | 46% | 1011.8 hPa | 0 mm | - | - | - |
* Rain latest hour (hover to see other rain measurements)
** Current wind speed in m/s (hover to see current wind gust speed)